• Join FlightAware (Why Join?)
  • Login
  • US Flag 
04:00PM EDT


 

Airport Tracker/Info


-or-


 

Live Flight TrackerFlight Track Log ✈ AWE1940 ✈ 25-Jun-2013 ✈ KIAH - KCLT

Flight Track Log - Related Links

Times and Time Zones

All times are in EDT time to prevent confusion due to time zone crossing. See the AWE1940 flight status page for this flight to view local times or setup timezone preferences in your user account.

Time Position Orientation Groundspeed Altitude Reporting Facility
EDT Latitude Longitude Course Direction KTS MPH feet Rate Location/Type
07:13PM 29.9178 -95.2767 90° East 218 251 3,400  Level Houston Center
07:14PM 29.8889 -95.2344 128° Southeast 225 259 4,900 2,280 Climbing Houston Center
07:15PM 29.9834 -94.8267 90° East  Level FlightAware Approximate
07:15PM 29.8544 -95.1564 117° Southeast 275 316 7,600  Level Houston Center
07:16PM 29.9834 -94.7001 90° East  Level FlightAware Approximate
07:16PM 29.8597 -95.0647 86° East 287 330 10,200  Level Houston Center
07:17PM 29.9833 -94.5734 90° East  Level FlightAware Approximate
07:17PM 29.8806 -94.9617 77° East 329 379 11,500  Level Houston Center
07:18PM 29.9834 -94.4437 90° East  Level FlightAware Approximate
07:18PM 29.9028 -94.8478 77° East 360 414 14,300  Level Houston Center
07:19PM 29.9222 -94.7300 79° East 372 428 16,300 2,100 Climbing Houston Center
07:20PM 29.9486 -94.5839 78° East 386 444 18,700 1,800 Climbing Houston Center
07:21PM 29.9697 -94.4711 78° East 395 455 20,100 1,320 Climbing Houston Center
07:22PM 29.9922 -94.3406 79° East 413 475 21,500 1,620 Climbing Houston Center
07:23PM 30.0158 -94.1769 80° East 431 496 23,500 1,620 Climbing Houston Center
07:24PM 30.0297 -94.0367 83° East 440 506 24,900 1,320 Climbing Houston Center
07:25PM 30.0486 -93.8928 81° East 453 521 26,300 1,200 Climbing Houston Center
07:26PM 30.0661 -93.7483 82° East 459 528 27,400 1,260 Climbing Houston Center
07:27PM 30.0831 -93.6017 82° East 465 535 29,000 1,620 Climbing Houston Center
07:28PM 30.1036 -93.4300 82° East 459 528 30,800 1,440 Climbing Houston Center
07:29PM 30.1197 -93.2881 82° East 455 524 32,000 1,020 Climbing Houston Center
07:30PM 30.1369 -93.1483 82° East 446 513 33,000 780 Climbing Houston Center
07:31PM 30.1853 -93.0236 66° East 433 498 33,700 660 Climbing Houston Center
07:32PM 30.2497 -92.9103 57° Northeast 426 490 34,400 600 Climbing Houston Center
07:33PM 30.3256 -92.7697 58° Northeast 430 495 35,000 240 Climbing Houston Center
07:34PM 30.3883 -92.6533 58° Northeast 429 494 35,000  Level Houston Center
07:35PM 30.4522 -92.5369 57° Northeast 430 495 35,000  Level Houston Center
07:36PM 30.5181 -92.4122 58° Northeast 428 493 35,000  Level Houston Center
07:37PM 30.5800 -92.2958 58° Northeast 428 493 35,000  Level Houston Center
07:38PM 30.6433 -92.1794 58° Northeast 429 494 35,000  Level Houston Center
07:40PM 30.7056 -92.0619 58° Northeast 430 495 35,100  Climbing Houston Center
07:41PM 30.7797 -91.9203 59° Northeast 432 497 35,000 -60 Descending Houston Center
07:42PM 30.8417 -91.8019 59° Northeast 431 496 35,000  Level Houston Center
07:43PM 30.9047 -91.6844 58° Northeast 432 497 35,000  Level Houston Center
07:44PM 30.9661 -91.5653 59° Northeast 432 497 35,000  Level Houston Center
07:45PM 31.0267 -91.4450 60° Northeast 433 498 35,000  Level Houston Center
07:46PM 31.0997 -91.3133 57° Northeast 438 504 35,000  Level Houston Center
07:47PM 31.1664 -91.1939 57° Northeast 439 505 35,000  Level Houston Center
07:48PM 31.2297 -91.0728 59° Northeast 440 506 35,000  Level Houston Center
07:49PM 31.2947 -90.9492 58° Northeast 443 510 35,000  Level Houston Center
07:50PM 31.3606 -90.8261 58° Northeast 445 512 35,000  Level Houston Center
07:51PM 31.4381 -90.6794 58° Northeast 442 509 35,000  Level Houston Center
07:52PM 31.5019 -90.5564 59° Northeast 441 507 35,000  Level Houston Center
07:53PM 31.5664 -90.4336 58° Northeast 442 509 35,000  Level Houston Center
07:54PM 31.6269 -90.3119 60° Northeast 435 501 35,000  Level Houston Center
07:55PM 31.6881 -90.1906 59° Northeast 432 497 35,000 -420 Level Houston Center
07:56PM 31.7519 -90.0675 59° Northeast 438 504 34,200 -900 Descending Houston Center
07:57PM 31.8153 -89.9433 59° Northeast 441 507 33,200 -600 Descending Houston Center
07:58PM 31.8878 -89.7947 60° Northeast 433 498 33,100 -60 Descending Memphis Center
07:59PM 31.9519 -89.6694 59° Northeast 438 504 33,100 -60 Level Memphis Center
08:00PM 32.0056 -89.5564 61° Northeast 438 504 33,000 -60 Descending Memphis Center
08:01PM 32.0692 -89.4306 59° Northeast 438 504 33,000  Level Memphis Center
08:02PM 32.1308 -89.3050 60° Northeast 444 511 33,100  Climbing Memphis Center
08:03PM 32.1925 -89.1789 60° Northeast 444 511 33,000  Descending Memphis Center
08:04PM 32.2517 -89.0553 60° Northeast 438 504 33,100  Climbing Memphis Center
08:05PM 32.3131 -88.9292 60° Northeast 438 504 33,000  Descending Memphis Center
08:06PM 32.3742 -88.8003 61° Northeast 438 504 33,100  Climbing Memphis Center
08:07PM 32.4350 -88.6736 60° Northeast 438 504 33,100  Level Memphis Center
08:08PM 32.4958 -88.5444 61° Northeast 438 504 33,100 -60 Level Memphis Center
08:11PM 32.6575 -88.2008 61° Northeast 441 507 33,000 -60 Descending Atlanta Center
08:12PM 32.7131 -88.0925 59° Northeast 441 507 33,000  Level Atlanta Center
08:13PM 32.7739 -87.9544 62° Northeast 447 514 33,100  Climbing Atlanta Center
08:14PM 32.8322 -87.8236 62° Northeast 447 514 33,100 -60 Level Atlanta Center
08:15PM 32.8969 -87.6928 59° Northeast 447 514 33,000  Descending Atlanta Center
08:16PM 32.9592 -87.5617 60° Northeast 447 514 33,100  Climbing Atlanta Center
08:17PM 33.0194 -87.4181 63° Northeast 447 514 33,000  Descending Atlanta Center
08:18PM 33.0772 -87.2864 62° Northeast 447 514 33,100  Climbing Atlanta Center
08:19PM 33.1369 -87.1544 62° Northeast 447 514 33,100  Level Atlanta Center
08:20PM 33.2006 -87.0303 58° Northeast 452 520 33,100 -60 Level Atlanta Center
08:21PM 33.2433 -86.9000 69° East 446 513 33,000 -60 Descending Atlanta Center
08:22PM 33.2697 -86.7494 78° East 446 513 33,000  Level Atlanta Center
08:23PM 33.2939 -86.5986 79° East 445 512 33,100  Climbing Atlanta Center
08:24PM 33.3158 -86.4353 81° East 459 528 33,100  Level Atlanta Center
08:25PM 33.3414 -86.3042 77° East 454 522 33,100  Level Atlanta Center
08:26PM 33.3669 -86.1531 79° East 454 522 33,100  Level Atlanta Center
08:27PM 33.3906 -85.9994 80° East 454 522 33,100  Level Atlanta Center
08:28PM 33.4136 -85.8506 79° East 454 522 33,100  Level Atlanta Center
08:29PM 33.4431 -85.6919 77° East 448 516 33,100  Level Atlanta Center
08:30PM 33.4636 -85.5403 81° East 448 516 33,100  Level Atlanta Center
08:31PM 33.4861 -85.3939 80° East 453 521 33,100  Level Atlanta Center
08:32PM 33.5086 -85.2447 80° East 448 516 33,100 -60 Level Atlanta Center
08:33PM 33.5331 -85.0981 79° East 448 516 33,000  Descending Atlanta Center
08:34PM 33.5531 -84.9511 81° East 448 516 33,100  Climbing Atlanta Center
08:35PM 33.5808 -84.8217 76° East 443 510 33,000 -180 Descending Atlanta Center
08:36PM 33.6236 -84.6600 72° East 443 510 32,800 -480 Descending Atlanta Center
08:37PM 33.6533 -84.5453 73° East 449 517 32,100 -900 Descending Atlanta Center
08:38PM 33.7000 -84.3758 72° East 449 517 31,000 -540 Descending Atlanta Center
08:39PM 33.7397 -84.2286 72° East 449 517 31,100 -360 Climbing Atlanta Center
08:40PM 33.8006 -84.1064 59° Northeast 456 525 30,300 -900 Descending Atlanta Center
08:41PM 33.8672 -83.9689 60° Northeast 469 540 29,300 -600 Descending Atlanta Center
08:42PM 33.9339 -83.8333 59° Northeast 475 547 29,100 -180 Descending Atlanta Center
08:43PM 34.0025 -83.7031 58° Northeast 465 535 29,000  Descending Atlanta Center
08:44PM 34.0708 -83.5672 59° Northeast 465 535 29,100  Climbing Atlanta Center
08:45PM 34.1286 -83.4264 64° Northeast 465 535 29,000 -600 Descending Atlanta Center
08:46PM 34.1864 -83.2856 64° Northeast 465 535 28,000 -960 Descending Atlanta Center
08:47PM 34.2481 -83.1467 62° Northeast 467 537 27,100 -480 Descending Atlanta Center
08:48PM 34.3094 -82.9950 64° Northeast 467 537 27,100 -60 Level Atlanta Center
08:49PM 34.3583 -82.8536 67° East 456 525 27,000 -600 Descending Atlanta Center
08:50PM 34.4028 -82.7169 68° East 443 510 26,000 -1,080 Descending Atlanta Center
08:51PM 34.4328 -82.6083 71° East 434 499 24,900 -1,020 Descending Atlanta Center
08:52PM 34.4772 -82.4664 69° East 394 453 24,000 -480 Descending Atlanta Center
08:53PM 34.5108 -82.3447 71° East 380 437 24,000 -720 Level Atlanta Center
08:54PM 34.5553 -82.2328 64° Northeast 375 432 22,600 -1,560 Descending Atlanta Center
08:55PM 34.6467 -82.1956 19° North 320 368 20,900 -1,740 Descending Atlanta Center
08:56PM 34.7319 -82.1911 North 313 360 19,200 -1,620 Descending Atlanta Center
08:57PM 34.7786 -82.0992 58° Northeast 304 350 17,700 -1,500 Descending Atlanta Center
08:58PM 34.7725 -81.9881 94° East 281 323 16,200 -1,440 Descending Atlanta Center
08:59PM 34.7603 -81.8719 97° East 289 333 14,900 -1,200 Descending Atlanta Center
09:00PM 34.7500 -81.7661 97° East 310 357 13,800 -1,140 Descending Atlanta Center
09:01PM 34.7439 -81.6625 94° East 310 357 12,700 -900 Descending Atlanta Center
09:02PM 34.7356 -81.5667 96° East 300 345 12,000 -360 Descending Atlanta Center
09:03PM 34.7819 -81.4819 56° Northeast 276 318 12,000 -300 Level Atlanta Center
09:04PM 34.8408 -81.4092 45° Northeast 288 331 11,400 -900 Descending Atlanta Center
09:05PM 34.8933 -81.3317 50° Northeast 297 342 10,300 -1,200 Descending Atlanta Center
09:06PM 34.9503 -81.2614 45° Northeast 286 329 9,100 -900 Descending Atlanta Center
09:06PM 34.9786 -81.2250 46° Northeast 286 329 9,000 -120 Descending Atlanta Center
09:07PM 35.0011 -81.1989 44° Northeast 281 323 9,000  Level Atlanta Center
09:07PM 35.0333 -81.1547 48° Northeast 285 328 9,000  Level Atlanta Center
09:08PM 35.0881 -81.0817 48° Northeast 288 331 9,000  Level Atlanta Center
09:09PM 35.1669 -81.0636 11° North 285 328 9,000 -480 Level Atlanta Center
09:10PM 35.2372 -81.0381 17° North 287 330 8,100 -840 Descending Atlanta Center
09:11PM 35.2897 -80.9675 48° Northeast 261 300 7,300 -780 Descending Atlanta Center
09:12PM 35.3319 -80.9100 48° Northeast 211 243 6,600 -1,020 Descending Atlanta Center
09:13PM 35.3744 -80.8550 47° Northeast 212 244 5,300 -1,080 Descending Atlanta Center
09:14PM 35.4106 -80.8000 51° Northeast 213 245 4,500 -660 Descending Atlanta Center
09:15PM 35.4278 -80.7433 70° East 209 241 4,000 -300 Descending Atlanta Center
09:16PM 35.3781 -80.7528 189° South 192 221 4,000  Level Atlanta Center